Time;durP1;ratioP1;P1;durP2;ratioP2;P2;SDS_P1;SDS_P2;PMS_P1;PMS_P2;Temp;Humidity;BMP_temperature;BMP_pressure;BME280_temperature;BME280_humidity;BME280_pressure;Samples;Min_cycle;Max_cycle;Signal;HPM_P1;HPM_P2
2022/10/09 00:01:09;;;;;;;10.93;3.08;;;;;;;21.01;63.68;101305.47;2093861;28;20049;-74
2022/10/09 00:02:31;;;;;;;6.85;2.92;;;;;;;21.00;63.82;101309.09;2090014;28;20140;-74
2022/10/09 00:03:55;;;;;;;10.23;3.22;;;;;;;21.01;63.94;101305.47;2092193;28;20048;-74
2022/10/09 00:05:18;;;;;;;12.23;3.80;;;;;;;21.01;64.12;101310.84;2082106;28;20049;-74
2022/10/09 00:06:40;;;;;;;10.43;3.45;;;;;;;21.01;64.09;101314.41;2078967;28;20122;-74
2022/10/09 00:08:03;;;;;;;9.68;3.15;;;;;;;21.00;64.31;101309.94;2089860;28;20400;-74
2022/10/09 00:09:25;;;;;;;8.98;3.15;;;;;;;20.97;64.51;101301.09;2081855;28;20048;-74
2022/10/09 00:10:47;;;;;;;8.98;3.30;;;;;;;20.92;64.64;101303.84;2099071;28;20060;-74
2022/10/09 00:12:10;;;;;;;11.25;2.95;;;;;;;20.86;64.86;101303.09;2091036;28;20536;-74
2022/10/09 00:13:32;;;;;;;7.70;3.10;;;;;;;20.81;64.83;101297.78;2093166;28;20105;-72
2022/10/09 00:14:54;;;;;;;10.68;3.15;;;;;;;20.77;64.90;101303.22;2084162;28;20448;-74
2022/10/09 00:16:18;;;;;;;9.77;3.30;;;;;;;20.74;64.74;101306.00;2077879;28;20073;-74
2022/10/09 00:17:39;;;;;;;12.10;3.85;;;;;;;20.69;64.70;101306.03;2083033;28;20068;-74
2022/10/09 00:19:02;;;;;;;5.38;3.13;;;;;;;20.64;64.91;101311.50;2085353;28;20716;-74
2022/10/09 00:20:23;;;;;;;9.82;3.40;;;;;;;20.60;64.73;101303.53;2089390;28;20048;-74
2022/10/09 00:21:46;;;;;;;10.25;3.65;;;;;;;20.57;64.83;101308.94;2093073;28;20090;-74
2022/10/09 00:23:10;;;;;;;9.15;4.00;;;;;;;20.55;64.68;101314.31;2090515;28;20056;-74
2022/10/09 00:24:33;;;;;;;8.82;3.67;;;;;;;20.53;64.54;101310.81;2086859;28;20110;-74
2022/10/09 00:25:56;;;;;;;9.85;3.53;;;;;;;20.52;64.41;101308.16;2088118;28;20575;-71
2022/10/09 00:27:19;;;;;;;7.60;3.25;;;;;;;20.48;64.64;101301.91;2079774;28;20045;-74
2022/10/09 00:28:40;;;;;;;9.95;3.20;;;;;;;20.47;64.72;101293.94;2096747;28;20090;-72
2022/10/09 00:30:03;;;;;;;9.13;3.67;;;;;;;20.44;64.67;101302.91;2083715;28;20549;-75
2022/10/09 00:31:25;;;;;;;9.00;3.65;;;;;;;20.43;64.61;101306.47;2091310;28;20052;-74
2022/10/09 00:32:47;;;;;;;10.80;4.18;;;;;;;20.45;64.55;101303.78;2085456;28;20567;-75
2022/10/09 00:34:09;;;;;;;11.60;3.10;;;;;;;20.45;64.55;101302.00;2082929;28;20040;-74
2022/10/09 00:35:31;;;;;;;10.20;3.90;;;;;;;20.45;64.40;101302.00;2083194;28;20044;-74
2022/10/09 00:36:53;;;;;;;12.30;3.53;;;;;;;20.46;64.20;101302.88;2082335;28;20045;-74
2022/10/09 00:38:16;;;;;;;12.88;3.50;;;;;;;20.47;64.32;101299.28;2082563;28;20191;-74
2022/10/09 00:39:39;;;;;;;9.68;3.20;;;;;;;20.47;63.90;101308.22;2081502;28;20045;-75
2022/10/09 00:41:01;;;;;;;7.97;3.40;;;;;;;20.52;63.95;101310.81;2084191;28;20056;-75
2022/10/09 00:42:25;;;;;;;;;;;;;;;20.51;63.63;101307.25;2091654;28;20036;-75
2022/10/09 00:43:48;;;;;;;9.50;2.97;;;;;;;20.53;63.56;101297.38;2083287;28;19921;-75
2022/10/09 00:45:19;;;;;;;12.40;4.00;;;;;;;20.54;63.29;101295.59;2081507;28;20089;-75
2022/10/09 00:46:47;;;;;;;9.20;3.40;;;;;;;20.55;63.49;101300.03;2078874;28;20425;-75
2022/10/09 00:48:12;;;;;;;9.15;3.33;;;;;;;20.55;63.41;101303.59;2083452;28;20148;-75
2022/10/09 00:49:34;;;;;;;8.65;3.15;;;;;;;20.56;63.33;101302.69;2091642;28;20485;-75
2022/10/09 00:50:59;;;;;;;7.72;3.90;;;;;;;20.57;63.49;101298.22;2096343;28;20060;-74
2022/10/09 00:52:24;;;;;;;10.85;3.78;;;;;;;20.59;63.50;101297.28;2094021;28;20512;-74
2022/10/09 00:53:47;;;;;;;7.60;3.42;;;;;;;20.59;63.50;101297.28;2089908;28;20048;-75
2022/10/09 00:55:10;;;;;;;14.60;3.78;;;;;;;20.62;63.71;101296.31;2085483;28;20547;-75
2022/10/09 00:56:33;;;;;;;11.48;3.75;;;;;;;20.62;63.55;101307.94;2090087;28;20067;-74
2022/10/09 00:57:59;;;;;;;10.68;3.53;;;;;;;20.61;63.70;101303.50;2091379;28;20060;-74
2022/10/09 00:59:22;;;;;;;11.95;3.72;;;;;;;20.60;63.41;101298.19;2090786;28;20040;-72
2022/10/09 01:00:45;;;;;;;10.02;3.80;;;;;;;20.59;63.48;101296.41;2089162;28;20055;-72
2022/10/09 01:02:08;;;;;;;9.05;3.83;;;;;;;20.59;63.30;101302.66;2088942;28;20593;-75
2022/10/09 01:03:29;;;;;;;8.32;3.85;;;;;;;20.59;63.53;101299.97;2078765;28;20045;-74
2022/10/09 01:04:51;;;;;;;9.85;3.25;;;;;;;20.59;63.50;101291.91;2089299;28;20048;-74
2022/10/09 01:06:19;;;;;;;9.32;3.72;;;;;;;20.57;63.60;101299.09;2094529;28;20056;-75
2022/10/09 01:07:48;;;;;;;7.47;3.65;;;;;;;20.55;63.53;101300.03;2094935;28;20043;-75
2022/10/09 01:09:16;;;;;;;9.98;3.80;;;;;;;20.51;63.91;101292.94;2097279;28;20089;-75
2022/10/09 01:10:45;;;;;;;8.25;3.20;;;;;;;20.48;64.01;101287.66;2094385;28;20048;-74
2022/10/09 01:12:15;;;;;;;10.32;3.67;;;;;;;20.46;63.96;101284.09;2095978;28;20098;-75
2022/10/09 01:13:46;;;;;;;10.40;3.78;;;;;;;20.45;64.23;101283.22;2095530;28;20399;-75
2022/10/09 01:15:16;;;;;;;15.13;3.88;;;;;;;20.44;64.35;101285.91;2088596;28;20088;-74
2022/10/09 01:16:44;;;;;;;9.32;3.55;;;;;;;20.44;64.30;101293.97;2104734;28;20097;-74
2022/10/09 01:18:13;;;;;;;11.27;3.60;;;;;;;20.45;64.45;101295.75;2080695;28;20056;-74
2022/10/09 01:20:01;;;;;;;9.00;3.72;;;;;;;20.44;64.51;101297.53;2089982;28;20040;-74
2022/10/09 01:21:31;;;;;;;9.75;3.58;;;;;;;20.45;64.56;101296.63;2095694;28;20137;-75
2022/10/09 01:23:06;;;;;;;8.60;3.13;;;;;;;20.48;64.53;101307.28;2097889;28;20045;-74
2022/10/09 01:24:37;;;;;;;10.88;4.35;;;;;;;20.51;64.46;101290.28;2096133;28;20056;-74
2022/10/09 01:26:11;;;;;;;8.13;3.80;;;;;;;20.53;64.41;101293.81;2089592;28;20483;-75
2022/10/09 01:27:36;;;;;;;10.02;3.65;;;;;;;20.54;64.48;101290.22;2096190;28;20567;-73
2022/10/09 01:29:03;;;;;;;9.43;3.40;;;;;;;20.54;64.70;101283.06;2089964;28;20067;-72
2022/10/09 01:30:26;;;;;;;7.65;3.15;;;;;;;20.53;64.81;101286.66;2097116;28;20045;-74
2022/10/09 01:31:50;;;;;;;8.15;3.30;;;;;;;20.54;64.96;101283.06;2083686;28;20057;-73
2022/10/09 01:33:15;;;;;;;10.25;4.18;;;;;;;20.53;64.59;101283.97;2096092;28;20041;-72
2022/10/09 01:34:38;;;;;;;8.80;3.55;;;;;;;20.51;64.72;101288.47;2095162;28;20040;-73
2022/10/09 01:36:02;;;;;;;8.23;3.33;;;;;;;20.50;64.67;101289.38;2088076;28;20045;-73
2022/10/09 01:37:26;;;;;;;8.48;4.00;;;;;;;20.48;64.68;101283.16;2093046;28;20122;-73
2022/10/09 01:38:49;;;;;;;9.05;3.10;;;;;;;20.46;64.69;101285.00;2083829;28;20639;-72
2022/10/09 01:40:14;;;;;;;9.45;3.70;;;;;;;20.46;64.53;101284.09;2088629;28;20515;-73
2022/10/09 01:41:36;;;;;;;10.50;3.83;;;;;;;20.44;64.69;101283.22;2089271;28;20069;-72
2022/10/09 01:43:01;;;;;;;10.07;3.30;;;;;;;20.41;64.47;101278.81;2086947;28;20715;-72
2022/10/09 01:44:24;;;;;;;8.55;3.75;;;;;;;20.38;64.80;101277.97;2083205;28;20152;-72
2022/10/09 01:45:48;;;;;;;6.68;3.55;;;;;;;20.36;64.86;101286.03;2089392;28;20569;-73
2022/10/09 01:47:14;;;;;;;8.20;3.72;;;;;;;20.34;64.78;101293.25;2086737;28;20049;-72
2022/10/09 01:48:37;;;;;;;9.45;4.03;;;;;;;20.29;64.81;101287.91;2092522;28;20040;-72
2022/10/09 01:50:06;;;;;;;8.00;3.42;;;;;;;20.26;65.11;101287.97;2087833;28;20060;-74
2022/10/09 01:51:41;;;;;;;9.43;4.00;;;;;;;20.23;65.20;101284.41;2099533;28;20048;-74
2022/10/09 01:53:07;;;;;;;11.90;3.70;;;;;;;20.21;65.10;101286.28;2073035;28;20140;-72
2022/10/09 01:54:34;;;;;;;8.10;3.63;;;;;;;20.21;65.10;101288.94;2077191;28;20541;-73
2022/10/09 01:56:05;;;;;;;13.73;3.78;;;;;;;20.22;65.31;101293.38;2093842;28;20060;-72
2022/10/09 01:57:35;;;;;;;12.00;3.80;;;;;;;20.22;65.19;101288.00;2097793;28;20384;-73
2022/10/09 01:59:03;;;;;;;9.55;2.95;;;;;;;20.25;65.20;101287.97;2083335;28;20176;-72
2022/10/09 02:00:25;;;;;;;10.68;4.10;;;;;;;20.29;65.47;101289.69;2099584;28;20047;-73
2022/10/09 02:01:49;;;;;;;14.18;5.00;;;;;;;20.32;65.20;101289.66;2087681;28;20061;-72
2022/10/09 02:03:14;;;;;;;11.02;3.50;;;;;;;20.35;65.18;101288.78;2093784;28;20091;-72
2022/10/09 02:04:40;;;;;;;7.72;3.00;;;;;;;20.34;65.30;101284.31;2085469;28;20045;-73
2022/10/09 02:06:06;;;;;;;7.68;3.22;;;;;;;20.31;65.29;101290.56;2094472;28;20036;-72
2022/10/09 02:07:29;;;;;;;10.50;3.28;;;;;;;20.28;65.45;101287.94;2094640;28;20059;-72
2022/10/09 02:08:54;;;;;;;8.68;3.42;;;;;;;20.27;65.54;101291.53;2094314;28;20185;-72
2022/10/09 02:10:17;;;;;;;11.05;3.53;;;;;;;20.25;65.65;101290.66;2085399;28;20065;-72
2022/10/09 02:11:42;;;;;;;11.32;3.97;;;;;;;20.22;66.02;101291.56;2090329;28;20036;-72
2022/10/09 02:13:04;;;;;;;10.07;3.47;;;;;;;20.21;66.15;101295.19;2080956;28;20536;-72
2022/10/09 02:14:28;;;;;;;9.32;3.80;;;;;;;20.23;65.97;101295.16;2094785;28;20127;-72
2022/10/09 02:15:57;;;;;;;9.02;3.40;;;;;;;20.22;66.06;101291.56;2088391;28;20045;-72
2022/10/09 02:17:25;;;;;;;9.52;3.53;;;;;;;20.24;65.86;101307.66;2080206;28;20037;-72
2022/10/09 02:18:59;;;;;;;10.63;4.03;;;;;;;20.24;65.98;101299.59;2094743;28;20048;-71
2022/10/09 02:20:27;;;;;;;11.57;3.67;;;;;;;20.25;65.83;101296.03;2104744;28;20028;-72
2022/10/09 02:21:55;;;;;;;8.48;3.78;;;;;;;20.23;66.06;101293.34;2088281;28;20143;-72
2022/10/09 02:23:18;;;;;;;10.65;3.65;;;;;;;20.25;66.28;101304.06;2093016;28;20048;-72
2022/10/09 02:24:43;;;;;;;11.93;3.78;;;;;;;20.25;66.21;101298.69;2088940;28;20055;-72
2022/10/09 02:26:04;;;;;;;11.70;3.67;;;;;;;20.24;66.29;101304.97;2094621;28;20052;-72
2022/10/09 02:27:28;;;;;;;12.80;3.78;;;;;;;20.23;66.47;101306.75;2091219;28;20040;-72
2022/10/09 02:28:50;;;;;;;11.05;4.50;;;;;;;20.21;66.36;101311.28;2095176;28;20082;-72
2022/10/09 02:30:15;;;;;;;8.13;3.85;;;;;;;20.20;66.26;101304.16;2094574;28;20055;-72
2022/10/09 02:31:40;;;;;;;10.38;4.10;;;;;;;20.19;66.41;101301.47;2091740;28;20048;-73
2022/10/09 02:33:04;;;;;;;10.57;4.10;;;;;;;20.16;66.66;101301.50;2093440;28;20055;-73
2022/10/09 02:34:26;;;;;;;12.48;3.78;;;;;;;20.12;66.81;101300.69;2091962;28;20093;-72
2022/10/09 02:35:48;;;;;;;10.43;3.70;;;;;;;20.09;66.67;101302.50;2092996;28;20091;-73
2022/10/09 02:37:09;;;;;;;9.95;4.13;;;;;;;20.06;66.97;101298.09;2094767;28;20109;-73
2022/10/09 02:38:32;;;;;;;9.15;3.70;;;;;;;20.04;66.96;101304.38;2089203;28;20047;-73
2022/10/09 02:39:53;;;;;;;8.60;3.78;;;;;;;20.01;66.97;101302.66;2085297;28;20102;-72
2022/10/09 02:41:16;;;;;;;8.10;4.30;;;;;;;19.99;67.02;101304.47;2092386;28;20036;-72
2022/10/09 02:42:37;;;;;;;11.30;3.47;;;;;;;19.98;66.84;101304.47;2091722;28;20037;-72
2022/10/09 02:44:00;;;;;;;8.30;3.60;;;;;;;19.94;66.56;101311.69;2092701;28;20135;-72
2022/10/09 02:45:23;;;;;;;9.20;3.67;;;;;;;19.98;66.45;101315.19;2089392;28;20048;-73
2022/10/09 02:46:45;;;;;;;11.07;4.07;;;;;;;19.96;66.21;101314.31;2087745;28;20041;-72
2022/10/09 02:48:06;;;;;;;10.40;4.00;;;;;;;19.95;66.25;101317.94;2085259;28;20044;-72
2022/10/09 02:49:29;;;;;;;9.63;4.00;;;;;;;19.93;66.08;101320.63;2092510;28;20135;-72
2022/10/09 02:50:50;;;;;;;9.38;4.07;;;;;;;19.92;65.98;101328.69;2094340;28;20053;-72
2022/10/09 02:52:13;;;;;;;8.07;3.45;;;;;;;19.86;65.91;101322.50;2093118;28;20041;-72
2022/10/09 02:53:35;;;;;;;11.18;3.78;;;;;;;19.86;65.99;101319.81;2085152;28;20033;-72
2022/10/09 02:54:57;;;;;;;9.65;4.00;;;;;;;19.85;66.05;101319.84;2086190;28;20045;-72
2022/10/09 02:56:19;;;;;;;8.13;3.97;;;;;;;19.83;65.91;101318.97;2093603;28;20056;-72
2022/10/09 02:57:42;;;;;;;8.55;3.88;;;;;;;19.80;66.12;101313.66;2088703;28;20047;-73
2022/10/09 02:59:04;;;;;;;10.18;4.15;;;;;;;19.79;65.97;101318.13;2093482;28;20763;-73
2022/10/09 03:00:27;;;;;;;9.30;4.07;;;;;;;19.78;66.18;101315.47;2094233;28;20515;-72
2022/10/09 03:01:50;;;;;;;8.55;4.10;;;;;;;19.77;66.22;101332.44;2096560;28;20040;-73
2022/10/09 03:03:12;;;;;;;12.85;4.57;;;;;;;19.76;66.10;101323.50;2085720;28;20049;-73
2022/10/09 03:04:35;;;;;;;9.32;4.07;;;;;;;19.75;66.03;101318.22;2099657;28;20089;-73
2022/10/09 03:06:00;;;;;;;12.90;4.20;;;;;;;19.75;65.96;101327.13;2082423;28;20057;-73
2022/10/09 03:07:22;;;;;;;10.75;4.13;;;;;;;19.72;65.97;101329.84;2086705;28;20029;-72
2022/10/09 03:08:46;;;;;;;9.60;4.15;;;;;;;19.73;65.96;101331.63;2093646;28;20769;-73
2022/10/09 03:10:09;;;;;;;10.30;4.25;;;;;;;19.74;66.09;101327.16;2093773;28;20485;-73
2022/10/09 03:11:31;;;;;;;13.20;5.45;;;;;;;19.74;66.21;101330.72;2079919;28;20073;-73
2022/10/09 03:12:52;;;;;;;8.38;3.63;;;;;;;19.74;65.83;101327.16;2096561;28;20044;-73
2022/10/09 03:14:15;;;;;;;9.45;3.70;;;;;;;19.75;66.13;101329.81;2094836;28;20052;-73
2022/10/09 03:15:38;;;;;;;9.35;3.78;;;;;;;19.76;66.11;101326.19;2092561;28;20560;-73
2022/10/09 03:17:00;;;;;;;11.18;3.90;;;;;;;19.75;66.01;101329.81;2084177;28;20033;-73
2022/10/09 03:18:22;;;;;;;8.43;4.13;;;;;;;19.75;65.84;101328.91;2085392;28;20518;-73
2022/10/09 03:19:44;;;;;;;;;;;;;;;19.72;65.80;101326.25;2089037;28;20052;-73
2022/10/09 03:21:06;;;;;;;8.90;4.38;;;;;;;19.73;65.88;101334.28;2085837;28;19928;-73
2022/10/09 03:22:29;;;;;;;;;;;;;;;19.73;65.76;101334.28;2092241;28;20037;-73
2022/10/09 03:23:50;;;;;;;8.90;3.90;;;;;;;19.74;65.96;101336.06;2093125;28;19927;-73
2022/10/09 03:25:13;;;;;;;10.00;4.15;;;;;;;19.77;65.74;101329.75;2085228;28;20045;-73
2022/10/09 03:26:35;;;;;;;8.23;3.80;;;;;;;19.81;65.71;101334.19;2099008;28;20059;-73
2022/10/09 03:27:57;;;;;;;7.15;3.58;;;;;;;19.83;65.68;101333.25;2090952;28;20153;-73
2022/10/09 03:29:20;;;;;;;9.35;3.30;;;;;;;19.87;65.28;101340.38;2093595;28;20040;-73
2022/10/09 03:30:42;;;;;;;8.95;3.78;;;;;;;19.94;65.17;101329.56;2082609;28;20056;-73
2022/10/09 03:32:05;;;;;;;9.77;3.63;;;;;;;19.95;65.17;101331.34;2091318;28;20044;-73
2022/10/09 03:33:26;;;;;;;10.60;4.00;;;;;;;19.96;65.03;101330.41;2084387;28;20049;-73
2022/10/09 03:34:48;;;;;;;11.52;3.58;;;;;;;19.98;65.04;101336.63;2082820;28;20041;-73
2022/10/09 03:36:10;;;;;;;12.93;4.00;;;;;;;20.02;65.07;101341.06;2091150;28;20741;-73
2022/10/09 03:37:33;;;;;;;10.90;3.53;;;;;;;20.02;64.94;101333.88;2095412;28;20040;-73
2022/10/09 03:38:56;;;;;;;9.27;3.80;;;;;;;20.03;65.02;101337.44;2091540;28;20068;-73
2022/10/09 03:40:17;;;;;;;8.65;3.25;;;;;;;20.02;64.66;101341.06;2097689;28;20504;-73
2022/10/09 03:41:40;;;;;;;8.60;3.80;;;;;;;20.01;64.78;101340.19;2094564;28;20661;-73
2022/10/09 03:43:01;;;;;;;8.88;3.67;;;;;;;19.98;64.67;101340.22;2091138;28;20045;-73
2022/10/09 03:44:24;;;;;;;6.47;3.53;;;;;;;19.99;64.59;101350.03;2093970;28;20051;-73
2022/10/09 03:45:47;;;;;;;10.77;3.63;;;;;;;19.99;64.78;101343.78;2086209;28;20049;-73
2022/10/09 03:47:09;;;;;;;9.60;3.65;;;;;;;19.96;64.55;101341.13;2093178;28;20504;-72
2022/10/09 03:48:30;;;;;;;8.18;3.38;;;;;;;19.97;64.49;101337.53;2083240;28;20110;-73
2022/10/09 03:49:53;;;;;;;6.15;3.08;;;;;;;19.97;64.35;101338.44;2081982;28;20107;-73
2022/10/09 03:51:14;;;;;;;5.93;3.40;;;;;;;20.00;64.55;101333.03;2095773;28;20039;-72
2022/10/09 03:52:37;;;;;;;8.27;3.30;;;;;;;20.00;64.37;101337.50;2083587;28;20049;-72
2022/10/09 03:53:58;;;;;;;7.75;3.38;;;;;;;20.00;64.15;101333.03;2077754;28;20057;-72
2022/10/09 03:55:21;;;;;;;7.20;3.15;;;;;;;20.01;64.34;101336.59;2082965;28;20147;-74
2022/10/09 03:56:44;;;;;;;7.97;3.38;;;;;;;20.03;64.10;101343.69;2083487;28;20045;-74
2022/10/09 03:58:07;;;;;;;6.47;3.05;;;;;;;20.03;64.25;101343.69;2090213;28;20044;-74
2022/10/09 03:59:28;;;;;;;7.97;3.20;;;;;;;20.02;64.09;101346.44;2093996;28;20090;-74
2022/10/09 04:00:55;;;;;;;8.07;3.17;;;;;;;20.03;64.07;101346.38;2083194;28;20045;-73
2022/10/09 04:02:16;;;;;;;8.40;3.25;;;;;;;20.06;64.17;101342.78;2086417;28;20140;-73
2022/10/09 04:03:39;;;;;;;7.43;3.30;;;;;;;20.11;63.71;101347.16;2080367;28;20112;-73
2022/10/09 04:05:00;;;;;;;7.82;3.05;;;;;;;20.16;63.71;101345.31;2082094;28;20075;-73
2022/10/09 04:06:22;;;;;;;10.35;3.50;;;;;;;20.23;63.57;101340.72;2088327;28;20074;-73
2022/10/09 04:07:44;;;;;;;9.10;3.58;;;;;;;20.29;63.56;101351.38;2084761;28;20099;-73
2022/10/09 04:09:06;;;;;;;6.38;3.00;;;;;;;20.34;63.40;101338.84;2085084;28;20472;-73
2022/10/09 04:10:29;;;;;;;8.85;3.72;;;;;;;20.40;63.59;101343.22;2089883;28;20118;-73
2022/10/09 04:11:51;;;;;;;7.63;3.50;;;;;;;20.45;63.63;101347.59;2102314;28;20138;-73
2022/10/09 04:13:13;;;;;;;13.30;3.97;;;;;;;20.50;63.76;101348.41;2094330;28;20094;-73
2022/10/09 04:14:35;;;;;;;9.32;3.60;;;;;;;20.53;63.71;101351.06;2080409;28;20042;-73
2022/10/09 04:15:59;;;;;;;7.70;3.08;;;;;;;20.55;63.70;101353.69;2086318;28;20098;-73
2022/10/09 04:17:21;;;;;;;7.68;3.17;;;;;;;20.53;63.69;101343.00;2093126;28;20492;-73
2022/10/09 04:18:44;;;;;;;7.85;3.00;;;;;;;20.54;63.89;101351.94;2085876;28;20037;-73
2022/10/09 04:20:06;;;;;;;7.30;3.08;;;;;;;20.54;63.91;101347.47;2075127;28;20119;-73
2022/10/09 04:21:30;;;;;;;10.02;3.53;;;;;;;20.54;64.04;101343.88;2093785;28;20040;-74
2022/10/09 04:22:51;;;;;;;9.35;2.88;;;;;;;20.54;63.89;101352.81;2093492;28;20045;-73
2022/10/09 04:24:13;;;;;;;8.00;2.90;;;;;;;20.56;64.12;101347.41;2084392;28;20078;-73
2022/10/09 04:25:35;;;;;;;8.85;3.30;;;;;;;20.56;64.17;101355.47;2093607;28;20435;-72
2022/10/09 04:26:57;;;;;;;9.88;3.40;;;;;;;20.56;64.09;101353.66;2084309;28;20552;-72
2022/10/09 04:28:19;;;;;;;9.23;3.28;;;;;;;20.54;64.10;101358.19;2084364;28;20584;-72
2022/10/09 04:29:42;;;;;;;8.55;3.30;;;;;;;20.54;64.11;101360.00;2093342;28;20503;-73
2022/10/09 04:31:06;;;;;;;8.48;2.88;;;;;;;20.56;64.27;101367.06;2088530;28;20477;-73
2022/10/09 04:32:28;;;;;;;5.47;3.17;;;;;;;20.60;64.00;101363.47;2093768;28;20097;-72
2022/10/09 04:33:51;;;;;;;6.22;3.28;;;;;;;20.64;63.90;101362.47;2087624;28;20402;-73
2022/10/09 04:35:15;;;;;;;6.07;2.97;;;;;;;20.69;63.87;101370.44;2088600;28;20054;-73
2022/10/09 04:36:38;;;;;;;8.90;3.38;;;;;;;20.71;63.52;101365.94;2083937;28;20041;-73
2022/10/09 04:38:00;;;;;;;11.05;3.10;;;;;;;20.73;63.70;101374.00;2091378;28;20047;-73
2022/10/09 04:39:22;;;;;;;6.68;2.65;;;;;;;20.72;63.59;101374.91;2095944;28;20117;-73
2022/10/09 04:40:45;;;;;;;9.68;2.80;;;;;;;20.73;63.40;101374.00;2092158;28;20040;-73
2022/10/09 04:42:07;;;;;;;8.02;3.40;;;;;;;20.75;63.28;101377.50;2084582;28;20049;-72
2022/10/09 04:43:29;;;;;;;9.35;3.53;;;;;;;20.78;62.98;101370.31;2089907;28;20052;-73
2022/10/09 04:44:51;;;;;;;6.53;3.17;;;;;;;20.80;62.92;101383.72;2098790;28;20048;-73
2022/10/09 04:46:15;;;;;;;5.53;2.95;;;;;;;20.79;62.90;101377.47;2093856;28;20487;-73
2022/10/09 04:47:38;;;;;;;8.02;2.70;;;;;;;20.80;62.89;101378.34;2085932;28;20114;-73
2022/10/09 04:48:59;;;;;;;6.88;3.30;;;;;;;20.79;62.79;101390.00;2089221;28;20040;-73
2022/10/09 04:50:21;;;;;;;8.70;2.92;;;;;;;20.78;62.86;101389.09;2094695;28;20149;-72
2022/10/09 04:52:01;;;;;;;11.63;3.70;;;;;;;20.78;62.59;101388.22;2094601;28;20169;-73
2022/10/09 04:53:23;;;;;;;7.75;2.78;;;;;;;20.79;62.75;101388.19;2094943;28;20048;-73
2022/10/09 04:54:46;;;;;;;7.55;3.10;;;;;;;20.82;62.38;101392.59;2090086;28;20045;-72
2022/10/09 04:56:09;;;;;;;7.50;3.20;;;;;;;20.84;62.49;101393.47;2085092;28;20116;-73
2022/10/09 04:57:31;;;;;;;7.60;2.80;;;;;;;20.85;62.25;101390.78;2077513;28;20103;-73
2022/10/09 04:58:52;;;;;;;7.65;2.50;;;;;;;20.86;62.24;101397.03;2096816;28;20055;-73
2022/10/09 05:00:16;;;;;;;7.72;3.05;;;;;;;20.88;62.25;101397.88;2085351;28;20909;-72
2022/10/09 05:01:40;;;;;;;8.30;3.10;;;;;;;20.93;61.95;101398.69;2086958;28;20049;-72
2022/10/09 05:03:02;;;;;;;6.70;3.22;;;;;;;20.95;61.90;101403.13;2082899;28;20094;-73
2022/10/09 05:04:27;;;;;;;6.13;3.20;;;;;;;21.00;61.71;101408.44;2091992;28;20530;-73
2022/10/09 05:05:49;;;;;;;5.60;2.63;;;;;;;21.02;61.61;101407.47;2093362;28;20090;-73
2022/10/09 05:07:12;;;;;;;;;;;;;;;21.00;61.48;101405.75;2092305;28;20064;-73
2022/10/09 05:08:34;;;;;;;8.20;3.20;;;;;;;21.02;61.63;101411.94;2095442;28;19931;-73
2022/10/09 05:09:58;;;;;;;8.55;2.88;;;;;;;21.05;61.61;101417.28;2092036;28;20053;-73
2022/10/09 05:11:21;;;;;;;7.15;3.03;;;;;;;21.07;61.53;101419.00;2086419;28;20045;-73
2022/10/09 05:12:45;;;;;;;7.00;2.85;;;;;;;21.08;61.55;101414.53;2086622;28;20571;-73
2022/10/09 05:14:07;;;;;;;8.38;3.13;;;;;;;21.11;61.45;101414.50;2083135;28;20072;-73
2022/10/09 05:15:29;;;;;;;11.10;3.20;;;;;;;21.18;61.47;101407.25;2082991;28;20049;-73
2022/10/09 05:16:53;;;;;;;9.40;3.08;;;;;;;21.28;61.41;101408.84;2087341;28;20178;-73
2022/10/09 05:18:14;;;;;;;7.78;2.92;;;;;;;21.35;61.05;101408.72;2085402;28;20156;-73
2022/10/09 05:19:37;;;;;;;7.35;2.70;;;;;;;21.41;60.97;101407.69;2092171;28;20068;-73
2022/10/09 05:20:59;;;;;;;8.85;3.05;;;;;;;21.42;60.90;101406.78;2083262;28;20832;-73
2022/10/09 05:22:21;;;;;;;9.18;3.17;;;;;;;21.42;61.02;101412.16;2088486;28;20129;-73
2022/10/09 05:23:43;;;;;;;11.50;2.85;;;;;;;21.41;60.93;101413.97;2088221;28;20033;-73
2022/10/09 05:25:08;;;;;;;9.50;3.25;;;;;;;21.41;61.01;101413.97;2086587;28;20052;-73
2022/10/09 05:26:31;;;;;;;9.52;3.00;;;;;;;21.41;61.09;101415.75;2092433;28;20125;-74
2022/10/09 05:27:52;;;;;;;7.70;3.15;;;;;;;21.43;61.02;101411.25;2090712;28;20525;-73
2022/10/09 05:29:15;;;;;;;7.40;3.30;;;;;;;21.49;61.00;101419.19;2083144;28;20076;-73
2022/10/09 05:30:40;;;;;;;8.10;3.20;;;;;;;21.60;61.19;101424.34;2077329;28;20143;-73
2022/10/09 05:32:04;;;;;;;7.97;3.13;;;;;;;21.74;61.01;101424.97;2089160;28;20049;-73
2022/10/09 05:33:27;;;;;;;8.20;3.17;;;;;;;21.83;60.85;101423.00;2085396;28;20044;-73
2022/10/09 05:34:49;;;;;;;9.55;2.97;;;;;;;21.88;60.51;101426.47;2091583;28;20040;-73
2022/10/09 05:36:11;;;;;;;6.18;2.75;;;;;;;21.93;60.21;101426.38;2093082;28;20442;-73
2022/10/09 05:37:33;;;;;;;7.88;3.45;;;;;;;21.98;60.22;101426.34;2090998;28;20045;-73
2022/10/09 05:38:55;;;;;;;8.23;3.10;;;;;;;22.06;59.97;101425.25;2091808;28;20048;-73
2022/10/09 05:40:17;;;;;;;;;;;;;;;22.09;59.84;101435.94;2092778;28;20075;-72
2022/10/09 05:41:39;;;;;;;5.97;2.60;;;;;;;22.14;59.95;101436.72;2090759;28;19920;-73
2022/10/09 05:43:01;;;;;;;10.50;2.83;;;;;;;22.18;59.97;101440.25;2090565;28;20745;-72
2022/10/09 05:44:25;;;;;;;5.00;2.83;;;;;;;22.15;59.89;101443.00;2083278;28;20045;-73
2022/10/09 05:45:46;;;;;;;7.65;2.95;;;;;;;22.09;59.79;101441.34;2082094;28;20579;-72
2022/10/09 05:47:12;;;;;;;8.10;3.15;;;;;;;22.07;59.67;101440.47;2075559;28;20041;-73
2022/10/09 05:48:35;;;;;;;6.47;3.33;;;;;;;22.07;59.60;101445.84;2090643;28;20094;-72
2022/10/09 05:49:58;;;;;;;7.00;2.90;;;;;;;22.08;59.55;101444.03;2092790;28;20040;-73
2022/10/09 05:51:20;;;;;;;5.32;2.70;;;;;;;22.10;59.41;101451.19;2095092;28;20053;-72
2022/10/09 05:52:43;;;;;;;7.32;2.63;;;;;;;22.12;59.27;101452.00;2086093;28;20049;-72
2022/10/09 05:54:06;;;;;;;6.05;2.78;;;;;;;22.14;59.15;101455.56;2088532;28;20045;-73
2022/10/09 05:55:28;;;;;;;7.80;2.67;;;;;;;22.17;59.14;101451.94;2079950;28;20830;-73
2022/10/09 05:56:51;;;;;;;6.97;2.80;;;;;;;22.24;59.04;101449.09;2090090;28;20139;-73
2022/10/09 05:58:12;;;;;;;8.27;2.60;;;;;;;22.36;58.72;101460.50;2097300;28;20040;-73
2022/10/09 05:59:34;;;;;;;9.13;2.67;;;;;;;22.39;58.41;101455.03;2085120;28;20044;-73
2022/10/09 06:00:59;;;;;;;9.52;2.88;;;;;;;22.40;58.11;101448.72;2084880;28;20105;-73
2022/10/09 06:02:23;;;;;;;7.50;2.53;;;;;;;22.39;58.07;101458.59;2085648;28;20045;-73
2022/10/09 06:03:48;;;;;;;10.82;3.90;;;;;;;22.39;57.95;101455.91;2089759;28;20032;-72
2022/10/09 06:05:11;;;;;;;4.82;2.38;;;;;;;22.39;58.01;101463.09;2084092;28;20054;-73
2022/10/09 06:06:36;;;;;;;6.53;2.70;;;;;;;22.53;58.27;101458.31;2092032;28;20044;-73
2022/10/09 06:07:57;;;;;;;5.65;2.22;;;;;;;22.78;57.98;101459.53;2081164;28;20057;-73
2022/10/09 06:09:22;;;;;;;7.50;2.80;;;;;;;23.13;57.48;101460.50;2085927;28;20056;-72
2022/10/09 06:10:43;;;;;;;6.57;2.50;;;;;;;23.49;57.09;101462.31;2086652;28;20068;-72
2022/10/09 06:12:06;;;;;;;5.35;1.92;;;;;;;23.66;56.07;101451.94;2086427;28;20041;-72
2022/10/09 06:13:27;;;;;;;6.95;2.50;;;;;;;23.65;55.75;101463.66;2090909;28;20144;-72
2022/10/09 06:14:50;;;;;;;4.90;2.17;;;;;;;23.59;55.42;101466.50;2092926;28;20048;-72
2022/10/09 06:16:14;;;;;;;5.75;2.30;;;;;;;23.53;55.40;101461.28;2082401;28;20132;-72
2022/10/09 06:17:38;;;;;;;6.88;3.13;;;;;;;23.53;55.41;101472.06;2092111;28;20040;-74
2022/10/09 06:19:01;;;;;;;5.43;2.45;;;;;;;23.55;55.53;101470.22;2093829;28;20569;-74
2022/10/09 06:20:24;;;;;;;6.78;2.65;;;;;;;23.60;55.04;101470.09;2099239;28;20466;-77
2022/10/09 06:21:47;;;;;;;4.10;2.47;;;;;;;23.61;54.83;101472.75;2090849;28;20107;-75
2022/10/09 06:23:09;;;;;;;5.82;2.05;;;;;;;23.66;54.99;101472.63;2088047;28;20041;-74
2022/10/09 06:24:31;;;;;;;10.15;2.50;;;;;;;23.84;54.90;101477.50;2091517;28;20143;-75
2022/10/09 06:25:54;;;;;;;2.88;2.00;;;;;;;24.11;54.63;101482.13;2093442;28;20638;-75
2022/10/09 06:27:17;;;;;;;8.13;2.22;;;;;;;24.31;54.08;101483.38;2090400;28;20041;-74
2022/10/09 06:28:39;;;;;;;7.18;2.30;;;;;;;24.50;53.91;101485.50;2093642;28;20052;-74